Time;durP1;ratioP1;P1;durP2;ratioP2;P2;SDS_P1;SDS_P2;PMS_P1;PMS_P2;Temp;Humidity;BMP_temperature;BMP_pressure;BME280_temperature;BME280_humidity;BME280_pressure;Samples;Min_cycle;Max_cycle;Signal;HPM_P1;HPM_P2
2023/12/19 00:00:28;;;;;;;;;38.00;34.25;;;;;;;;5033027;28;45475;-77
2023/12/19 00:02:53;;;;;;;;;46.75;35.50;;;;;;;;5039138;28;45322;-77
2023/12/19 00:05:18;;;;;;;;;28.50;26.50;;;;;;;;5035914;28;45367;-77
2023/12/19 00:07:45;;;;;;;;;31.75;27.50;;;;;;;;5020928;28;45543;-77
2023/12/19 00:10:11;;;;;;;;;2.50;0.25;;;;;;;;5036825;28;45531;-77
2023/12/19 00:12:37;;;;;;;;;42.00;35.50;;;;;;;;5038826;28;45224;-78
2023/12/19 00:15:02;;;;;;;;;31.50;25.25;;;;;;;;5035981;28;45273;-77
2023/12/19 00:17:27;;;;;;;;;36.00;30.25;;;;;;;;5040451;28;45580;-77
2023/12/19 00:19:52;;;;;;;;;33.25;28.75;;;;;;;;5038573;28;45551;-77
2023/12/19 00:22:18;;;;;;;;;36.25;29.00;;;;;;;;5040870;28;45224;-77
2023/12/19 00:24:43;;;;;;;;;20.50;17.50;;;;;;;;5039825;28;45151;-77
2023/12/19 00:27:08;;;;;;;;;30.50;27.50;;;;;;;;5039636;28;45363;-78
2023/12/19 00:29:33;;;;;;;;;29.50;26.00;;;;;;;;5038159;28;46158;-78
2023/12/19 00:31:58;;;;;;;;;36.00;35.00;;;;;;;;5036071;28;45210;-77
2023/12/19 00:34:24;;;;;;;;;33.50;26.50;;;;;;;;5019348;28;45510;-78
2023/12/19 00:36:50;;;;;;;;;39.25;31.25;;;;;;;;5038784;28;45376;-78
2023/12/19 00:39:15;;;;;;;;;41.25;32.75;;;;;;;;5042406;28;45513;-77
2023/12/19 00:41:40;;;;;;;;;28.75;15.75;;;;;;;;5025224;28;45517;-78
2023/12/19 00:44:05;;;;;;;;;29.75;23.50;;;;;;;;5028021;28;45382;-78
2023/12/19 00:46:30;;;;;;;;;28.75;21.50;;;;;;;;5036686;28;45568;-78
2023/12/19 00:48:56;;;;;;;;;27.75;20.25;;;;;;;;5042684;28;45521;-78
2023/12/19 00:51:21;;;;;;;;;25.50;24.00;;;;;;;;5035698;28;45481;-78
2023/12/19 00:53:47;;;;;;;;;23.50;22.75;;;;;;;;5042091;28;45498;-78
2023/12/19 00:56:12;;;;;;;;;28.00;23.25;;;;;;;;5018153;28;45444;-78
2023/12/19 00:58:38;;;;;;;;;27.75;23.25;;;;;;;;5038450;28;45200;-78
2023/12/19 01:01:04;;;;;;;;;24.25;22.50;;;;;;;;5037324;28;45490;-78
2023/12/19 01:03:29;;;;;;;;;29.75;27.50;;;;;;;;5041756;28;44810;-78
2023/12/19 01:05:54;;;;;;;;;23.25;19.25;;;;;;;;5020663;28;45442;-78
2023/12/19 01:08:19;;;;;;;;;25.00;22.00;;;;;;;;5038972;28;45409;-78
2023/12/19 01:10:44;;;;;;;;;27.25;22.50;;;;;;;;5039496;28;45264;-78
2023/12/19 01:13:09;;;;;;;;;19.25;18.00;;;;;;;;5041880;28;45242;-78
2023/12/19 01:15:35;;;;;;;;;35.00;23.25;;;;;;;;5018277;28;45389;-78
2023/12/19 01:18:00;;;;;;;;;36.25;28.00;;;;;;;;5037362;28;45399;-78
2023/12/19 01:20:25;;;;;;;;;28.75;21.50;;;;;;;;5038502;28;45281;-78
2023/12/19 01:22:50;;;;;;;;;30.25;24.00;;;;;;;;5029415;28;45469;-78
2023/12/19 01:25:15;;;;;;;;;20.25;19.75;;;;;;;;5040629;28;45207;-78
2023/12/19 01:27:41;;;;;;;;;26.00;18.75;;;;;;;;5041449;28;45444;-78
2023/12/19 01:30:06;;;;;;;;;26.25;20.00;;;;;;;;5016398;28;45387;-78
2023/12/19 01:32:31;;;;;;;;;29.00;23.00;;;;;;;;5041136;28;45232;-78
2023/12/19 01:34:56;;;;;;;;;27.75;18.75;;;;;;;;5021413;28;46463;-78
2023/12/19 01:37:22;;;;;;;;;28.75;24.00;;;;;;;;5037977;28;45182;-78
2023/12/19 01:39:47;;;;;;;;;26.25;19.75;;;;;;;;5019977;28;45430;-78
2023/12/19 01:42:12;;;;;;;;;27.75;20.00;;;;;;;;5039513;28;45300;-78
2023/12/19 01:44:37;;;;;;;;;23.75;22.50;;;;;;;;5039074;28;45376;-78
2023/12/19 01:47:02;;;;;;;;;28.50;24.00;;;;;;;;5037264;28;45245;-78
2023/12/19 01:49:28;;;;;;;;;18.75;17.75;;;;;;;;5042726;28;44799;-78
2023/12/19 01:51:53;;;;;;;;;24.25;23.25;;;;;;;;5040484;28;45387;-78
2023/12/19 01:54:19;;;;;;;;;22.50;19.25;;;;;;;;5041849;28;45292;-79
2023/12/19 01:56:45;;;;;;;;;27.75;20.25;;;;;;;;5036315;28;46503;-79
2023/12/19 01:59:10;;;;;;;;;26.50;25.75;;;;;;;;5040228;28;45229;-79
2023/12/19 02:01:35;;;;;;;;;24.00;21.50;;;;;;;;5037249;28;45255;-79
2023/12/19 02:04:01;;;;;;;;;21.00;18.00;;;;;;;;5024338;28;45341;-79
2023/12/19 02:06:26;;;;;;;;;29.25;25.00;;;;;;;;5038836;28;45320;-79
2023/12/19 02:08:51;;;;;;;;;25.75;24.00;;;;;;;;5021666;28;45339;-78
2023/12/19 02:11:17;;;;;;;;;24.75;21.50;;;;;;;;5039212;28;45360;-78
2023/12/19 02:13:43;;;;;;;;;22.50;21.75;;;;;;;;5022367;28;45450;-78
2023/12/19 02:16:08;;;;;;;;;23.75;19.00;;;;;;;;5037303;28;45394;-78
2023/12/19 02:18:34;;;;;;;;;32.00;25.50;;;;;;;;5030220;28;45298;-78
2023/12/19 02:20:59;;;;;;;;;28.25;22.75;;;;;;;;5005868;28;45455;-78
2023/12/19 02:23:24;;;;;;;;;28.25;23.25;;;;;;;;5037036;28;46804;-78
2023/12/19 02:25:51;;;;;;;;;32.00;23.25;;;;;;;;5037978;28;45519;-78
2023/12/19 02:28:16;;;;;;;;;24.25;19.75;;;;;;;;5039781;28;45155;-78
2023/12/19 02:30:42;;;;;;;;;24.75;20.50;;;;;;;;5038108;28;45228;-78
2023/12/19 02:33:07;;;;;;;;;24.25;19.25;;;;;;;;5040595;28;45509;-79
2023/12/19 02:35:32;;;;;;;;;26.00;22.50;;;;;;;;5038660;28;45461;-78
2023/12/19 02:37:57;;;;;;;;;31.75;29.50;;;;;;;;5040507;28;45404;-79
2023/12/19 02:40:23;;;;;;;;;29.75;24.00;;;;;;;;5036330;28;45463;-79
2023/12/19 02:42:48;;;;;;;;;20.50;20.25;;;;;;;;5040299;28;45412;-79
2023/12/19 02:45:14;;;;;;;;;21.75;20.00;;;;;;;;5036322;28;46362;-79
2023/12/19 02:47:39;;;;;;;;;27.25;23.50;;;;;;;;5035805;28;45429;-78
2023/12/19 02:50:05;;;;;;;;;26.50;19.25;;;;;;;;5035041;28;45390;-79
2023/12/19 02:52:30;;;;;;;;;26.50;24.00;;;;;;;;5038895;28;45221;-79
2023/12/19 02:54:55;;;;;;;;;26.75;21.75;;;;;;;;5036194;28;45069;-79
2023/12/19 02:57:20;;;;;;;;;23.75;22.25;;;;;;;;5037891;28;45354;-79
2023/12/19 02:59:46;;;;;;;;;24.75;21.75;;;;;;;;5037093;28;45347;-78
2023/12/19 03:02:11;;;;;;;;;26.50;23.00;;;;;;;;5039810;28;45457;-78
2023/12/19 03:04:37;;;;;;;;;31.75;25.00;;;;;;;;5036807;28;45590;-79
2023/12/19 03:07:03;;;;;;;;;19.75;16.75;;;;;;;;5037309;28;45572;-79
2023/12/19 03:09:28;;;;;;;;;28.00;24.33;;;;;;;;5034431;28;45403;-79
2023/12/19 03:11:58;;;;;;;;;21.50;19.25;;;;;;;;5036842;28;45612;-78
2023/12/19 03:14:23;;;;;;;;;28.50;20.75;;;;;;;;5037941;28;45082;-79
2023/12/19 03:16:49;;;;;;;;;25.00;20.50;;;;;;;;5039190;28;45423;-78
2023/12/19 03:19:14;;;;;;;;;24.25;23.00;;;;;;;;5038373;28;44777;-79
2023/12/19 03:21:39;;;;;;;;;18.75;14.75;;;;;;;;5038241;28;45644;-78
2023/12/19 03:24:04;;;;;;;;;30.00;23.50;;;;;;;;5039706;28;45339;-78
2023/12/19 03:26:29;;;;;;;;;23.75;21.00;;;;;;;;5037473;28;45153;-78
2023/12/19 03:28:55;;;;;;;;;29.25;21.50;;;;;;;;5040107;28;45274;-78
2023/12/19 03:31:20;;;;;;;;;26.00;18.50;;;;;;;;5030329;28;45372;-78
2023/12/19 03:33:45;;;;;;;;;22.00;20.00;;;;;;;;5039543;28;45043;-78
2023/12/19 03:36:10;;;;;;;;;26.00;20.50;;;;;;;;5032630;28;45190;-78
2023/12/19 03:38:36;;;;;;;;;22.00;19.00;;;;;;;;5039851;28;45293;-78
2023/12/19 03:41:01;;;;;;;;;27.50;22.50;;;;;;;;5032214;28;46299;-79
2023/12/19 03:43:26;;;;;;;;;20.75;19.25;;;;;;;;5039408;28;45322;-77
2023/12/19 03:45:54;;;;;;;;;25.75;25.00;;;;;;;;5014589;28;45435;-78
2023/12/19 03:48:19;;;;;;;;;20.50;19.50;;;;;;;;5042477;28;45309;-80
2023/12/19 03:50:44;;;;;;;;;22.50;18.00;;;;;;;;5016253;28;45817;-78
2023/12/19 03:53:10;;;;;;;;;23.50;20.00;;;;;;;;5041481;28;45637;-78
2023/12/19 03:55:35;;;;;;;;;21.00;16.75;;;;;;;;5035145;28;45251;-78
2023/12/19 03:58:00;;;;;;;;;21.00;20.00;;;;;;;;5042527;28;45483;-78
2023/12/19 04:00:25;;;;;;;;;22.50;19.00;;;;;;;;5032680;28;45503;-75
2023/12/19 04:02:51;;;;;;;;;22.50;19.75;;;;;;;;5021534;28;46595;-76
2023/12/19 04:05:16;;;;;;;;;29.25;21.50;;;;;;;;5035433;28;45302;-76
2023/12/19 04:07:41;;;;;;;;;22.25;19.75;;;;;;;;5035938;28;44753;-76
2023/12/19 04:10:06;;;;;;;;;25.50;23.00;;;;;;;;5030787;28;45387;-76
2023/12/19 04:12:31;;;;;;;;;29.00;24.75;;;;;;;;5027089;28;45292;-76
2023/12/19 04:14:57;;;;;;;;;26.50;20.25;;;;;;;;5038998;28;45226;-77
2023/12/19 04:17:22;;;;;;;;;17.75;15.75;;;;;;;;5041049;28;45230;-76
2023/12/19 04:19:47;;;;;;;;;23.75;20.00;;;;;;;;5022684;28;46072;-77
2023/12/19 04:22:12;;;;;;;;;29.00;25.75;;;;;;;;5042515;28;45326;-77
2023/12/19 04:24:37;;;;;;;;;35.50;22.00;;;;;;;;5040608;28;45269;-76
2023/12/19 04:27:03;;;;;;;;;24.75;21.00;;;;;;;;5025906;28;45214;-76
2023/12/19 04:29:28;;;;;;;;;27.50;21.50;;;;;;;;5033395;28;46187;-76
2023/12/19 04:31:53;;;;;;;;;21.50;19.75;;;;;;;;5035737;28;45207;-76
2023/12/19 04:34:18;;;;;;;;;26.00;24.50;;;;;;;;5041641;28;45724;-79
2023/12/19 04:36:43;;;;;;;;;23.75;19.75;;;;;;;;5037953;28;45158;-79
2023/12/19 04:39:09;;;;;;;;;25.00;22.00;;;;;;;;5042113;28;45201;-75
2023/12/19 04:41:34;;;;;;;;;28.50;25.00;;;;;;;;5033968;28;46730;-75
2023/12/19 04:43:59;;;;;;;;;24.00;22.50;;;;;;;;5042033;28;45260;-76
2023/12/19 04:46:24;;;;;;;;;27.75;24.50;;;;;;;;5033706;28;45485;-75
2023/12/19 04:48:50;;;;;;;;;27.25;23.00;;;;;;;;5031418;28;46337;-75
2023/12/19 04:51:24;;;;;;;;;29.00;22.00;;;;;;;;5035317;28;45301;-77
2023/12/19 04:53:50;;;;;;;;;21.25;15.00;;;;;;;;5036407;28;45214;-75
2023/12/19 04:56:16;;;;;;;;;24.25;20.75;;;;;;;;5020946;28;45551;-75
2023/12/19 04:58:43;;;;;;;;;20.00;16.75;;;;;;;;5023886;28;45317;-76
2023/12/19 05:01:08;;;;;;;;;30.50;23.00;;;;;;;;5035752;28;45481;-76
2023/12/19 05:03:39;;;;;;;;;24.75;21.50;;;;;;;;5040694;28;45326;-77
2023/12/19 05:06:05;;;;;;;;;26.25;24.75;;;;;;;;5023670;28;45656;-78
2023/12/19 05:08:30;;;;;;;;;29.00;25.75;;;;;;;;5040429;28;45352;-78
2023/12/19 05:10:55;;;;;;;;;27.00;25.00;;;;;;;;5036408;28;45275;-75
2023/12/19 05:13:20;;;;;;;;;26.00;21.00;;;;;;;;5023659;28;45225;-75
2023/12/19 05:15:46;;;;;;;;;28.00;24.50;;;;;;;;5031640;28;45415;-74
2023/12/19 05:18:11;;;;;;;;;28.50;24.25;;;;;;;;5041533;28;45324;-77
2023/12/19 05:20:36;;;;;;;;;22.75;21.00;;;;;;;;5038349;28;45395;-77
2023/12/19 05:23:01;;;;;;;;;25.25;20.25;;;;;;;;5040344;28;45324;-76
2023/12/19 05:25:26;;;;;;;;;31.00;20.50;;;;;;;;5038423;28;45347;-78
2023/12/19 05:27:52;;;;;;;;;25.25;21.50;;;;;;;;5043558;28;45281;-75
2023/12/19 05:30:17;;;;;;;;;28.00;22.25;;;;;;;;5034178;28;45282;-74
2023/12/19 05:32:42;;;;;;;;;22.50;19.00;;;;;;;;5044150;28;45581;-75
2023/12/19 05:35:07;;;;;;;;;21.75;17.25;;;;;;;;5038821;28;45508;-75
2023/12/19 05:37:32;;;;;;;;;20.25;17.50;;;;;;;;5041773;28;45225;-74
2023/12/19 05:39:58;;;;;;;;;24.75;20.25;;;;;;;;5038146;28;46618;-74
2023/12/19 05:42:24;;;;;;;;;21.75;17.75;;;;;;;;5041447;28;44750;-79
2023/12/19 05:44:49;;;;;;;;;23.00;23.00;;;;;;;;5035460;28;45371;-75
2023/12/19 05:47:14;;;;;;;;;19.50;18.25;;;;;;;;5041207;28;45337;-76
2023/12/19 05:49:39;;;;;;;;;26.75;19.50;;;;;;;;5036707;28;45579;-75
2023/12/19 05:52:04;;;;;;;;;21.75;19.25;;;;;;;;5041527;28;45233;-77
2023/12/19 05:54:30;;;;;;;;;25.50;20.00;;;;;;;;5038417;28;45355;-77
2023/12/19 05:56:55;;;;;;;;;20.75;19.00;;;;;;;;5035800;28;45302;-77
2023/12/19 05:59:20;;;;;;;;;24.00;22.00;;;;;;;;5017168;28;45615;-77
2023/12/19 06:01:46;;;;;;;;;32.50;21.00;;;;;;;;5022708;28;45296;-78
2023/12/19 06:04:11;;;;;;;;;23.75;16.25;;;;;;;;5018723;28;45349;-77
2023/12/19 06:06:40;;;;;;;;;23.75;19.75;;;;;;;;5040892;28;45308;-80
2023/12/19 06:09:05;;;;;;;;;17.25;16.50;;;;;;;;5015572;28;47192;-78
2023/12/19 06:11:30;;;;;;;;;21.25;16.25;;;;;;;;5039867;28;45316;-79
2023/12/19 06:13:55;;;;;;;;;18.75;15.00;;;;;;;;5015970;28;45526;-79
2023/12/19 06:16:21;;;;;;;;;17.50;17.00;;;;;;;;5040528;28;44796;-82
2023/12/19 06:18:46;;;;;;;;;24.75;21.00;;;;;;;;5019161;28;47294;-78
2023/12/19 06:21:12;;;;;;;;;25.00;22.00;;;;;;;;5040463;28;45329;-75
2023/12/19 06:23:37;;;;;;;;;24.75;21.00;;;;;;;;5039138;28;45323;-78
2023/12/19 06:26:02;;;;;;;;;21.50;20.25;;;;;;;;5041544;28;45420;-75
2023/12/19 06:28:27;;;;;;;;;25.00;21.25;;;;;;;;5017596;28;46809;-77
2023/12/19 06:30:53;;;;;;;;;20.50;18.50;;;;;;;;5041948;28;45335;-76
2023/12/19 06:33:18;;;;;;;;;23.25;16.75;;;;;;;;5038370;28;45737;-77
2023/12/19 06:35:46;;;;;;;;;17.50;15.25;;;;;;;;5040078;28;45518;-79
2023/12/19 06:38:11;;;;;;;;;19.50;18.00;;;;;;;;5037309;28;46446;-81
2023/12/19 06:40:37;;;;;;;;;19.25;18.50;;;;;;;;5040097;28;45241;-78
2023/12/19 06:43:03;;;;;;;;;24.25;17.00;;;;;;;;5019924;28;45212;-79
2023/12/19 06:45:28;;;;;;;;;16.25;11.25;;;;;;;;5039743;28;45402;-79
2023/12/19 06:47:54;;;;;;;;;28.75;19.50;;;;;;;;5039918;28;46241;-81
2023/12/19 06:50:19;;;;;;;;;21.00;19.25;;;;;;;;5023053;28;45162;-78
2023/12/19 06:52:44;;;;;;;;;23.25;22.25;;;;;;;;5020830;28;45249;-79
2023/12/19 06:55:12;;;;;;;;;25.00;22.00;;;;;;;;5037583;28;45347;-79
2023/12/19 06:57:38;;;;;;;;;24.00;21.25;;;;;;;;5038647;28;45815;-78
2023/12/19 07:00:05;;;;;;;;;23.50;22.00;;;;;;;;5021375;28;45340;-79
2023/12/19 07:02:31;;;;;;;;;27.50;25.00;;;;;;;;5039650;28;45290;-78
2023/12/19 07:04:56;;;;;;;;;26.75;22.75;;;;;;;;5034521;28;45311;-79
2023/12/19 07:07:22;;;;;;;;;28.75;24.00;;;;;;;;5024129;28;46895;-79
2023/12/19 07:09:47;;;;;;;;;25.75;19.75;;;;;;;;5036171;28;45217;-79
2023/12/19 07:12:12;;;;;;;;;23.25;20.75;;;;;;;;5043749;28;44754;-79
2023/12/19 07:14:38;;;;;;;;;27.25;21.25;;;;;;;;5032855;28;45217;-80
2023/12/19 07:17:03;;;;;;;;;19.75;18.75;;;;;;;;5022977;28;47632;-80
2023/12/19 07:19:28;;;;;;;;;25.75;21.75;;;;;;;;5039151;28;45167;-79
2023/12/19 07:21:54;;;;;;;;;26.50;20.75;;;;;;;;5043281;28;45237;-79
2023/12/19 07:24:19;;;;;;;;;18.25;14.50;;;;;;;;5037754;28;45297;-79
2023/12/19 07:26:44;;;;;;;;;28.75;21.75;;;;;;;;5038560;28;46929;-79
2023/12/19 07:29:10;;;;;;;;;27.00;21.50;;;;;;;;5038039;28;45439;-79
2023/12/19 07:31:36;;;;;;;;;22.00;20.25;;;;;;;;5039033;28;45190;-79
2023/12/19 07:34:03;;;;;;;;;19.00;19.00;;;;;;;;5020053;28;45257;-78
2023/12/19 07:36:29;;;;;;;;;21.00;19.50;;;;;;;;5037988;28;45593;-79
2023/12/19 07:38:54;;;;;;;;;19.50;13.00;;;;;;;;5036074;28;45224;-78
2023/12/19 07:41:20;;;;;;;;;27.00;21.50;;;;;;;;5036947;28;44880;-79
2023/12/19 07:43:45;;;;;;;;;25.00;22.00;;;;;;;;5033579;28;45462;-79
2023/12/19 07:46:11;;;;;;;;;24.00;21.25;;;;;;;;5033116;28;47571;-79
2023/12/19 07:48:36;;;;;;;;;23.25;17.75;;;;;;;;5037684;28;45409;-80
2023/12/19 07:51:02;;;;;;;;;28.00;22.25;;;;;;;;5040492;28;45149;-80
2023/12/19 07:53:27;;;;;;;;;22.75;21.25;;;;;;;;5038448;28;45190;-79
2023/12/19 07:55:53;;;;;;;;;18.75;16.00;;;;;;;;5038401;28;46331;-80
2023/12/19 07:58:18;;;;;;;;;21.50;21.50;;;;;;;;5037118;28;45438;-80
2023/12/19 08:00:43;;;;;;;;;19.00;19.00;;;;;;;;5038393;28;44834;-79
2023/12/19 08:03:08;;;;;;;;;20.00;20.00;;;;;;;;5020826;28;45512;-79
2023/12/19 08:05:33;;;;;;;;;26.75;22.00;;;;;;;;5041990;28;45188;-80
2023/12/19 08:07:59;;;;;;;;;40.00;25.50;;;;;;;;5039834;28;45402;-79
2023/12/19 08:10:24;;;;;;;;;23.50;21.75;;;;;;;;5036924;28;45563;-79
2023/12/19 08:12:50;;;;;;;;;22.50;15.75;;;;;;;;5037164;28;45166;-80
2023/12/19 08:15:15;;;;;;;;;18.75;18.00;;;;;;;;5019311;28;47187;-79
2023/12/19 08:17:40;;;;;;;;;25.25;17.50;;;;;;;;5037806;28;45146;-79
2023/12/19 08:20:05;;;;;;;;;35.25;29.00;;;;;;;;5037052;28;44818;-79
2023/12/19 08:22:31;;;;;;;;;21.25;18.75;;;;;;;;5037046;28;45776;-79
2023/12/19 08:24:56;;;;;;;;;31.75;19.50;;;;;;;;5036222;28;46705;-79
2023/12/19 08:27:26;;;;;;;;;19.75;18.00;;;;;;;;5023490;28;44832;-78
2023/12/19 08:29:51;;;;;;;;;23.25;20.25;;;;;;;;5036398;28;45361;-78
2023/12/19 08:32:16;;;;;;;;;21.50;18.75;;;;;;;;5038450;28;45332;-77
2023/12/19 08:34:41;;;;;;;;;21.25;19.50;;;;;;;;5035214;28;45270;-77
2023/12/19 08:37:07;;;;;;;;;32.50;25.25;;;;;;;;5038478;28;45411;-77
2023/12/19 08:39:32;;;;;;;;;25.25;18.25;;;;;;;;5034089;28;45200;-78
2023/12/19 08:41:59;;;;;;;;;21.00;14.75;;;;;;;;5018892;28;45722;-79
2023/12/19 08:44:26;;;;;;;;;18.00;16.75;;;;;;;;5037203;28;46158;-78
2023/12/19 08:46:51;;;;;;;;;26.50;22.75;;;;;;;;5021407;28;45684;-75
2023/12/19 08:49:16;;;;;;;;;25.50;23.25;;;;;;;;5021068;28;44857;-75
2023/12/19 08:51:46;;;;;;;;;26.75;19.50;;;;;;;;5034586;28;45426;-75
2023/12/19 08:54:11;;;;;;;;;25.00;18.50;;;;;;;;5037282;28;45261;-75
2023/12/19 08:56:36;;;;;;;;;19.25;15.50;;;;;;;;5035192;28;45437;-75
2023/12/19 08:59:01;;;;;;;;;24.75;22.00;;;;;;;;5041994;28;45562;-75
2023/12/19 09:01:27;;;;;;;;;20.25;14.50;;;;;;;;5036800;28;45197;-75
2023/12/19 09:03:52;;;;;;;;;15.50;11.50;;;;;;;;5041493;28;45592;-75
2023/12/19 09:06:17;;;;;;;;;19.25;19.25;;;;;;;;5037280;28;45290;-75
2023/12/19 09:08:43;;;;;;;;;24.00;17.00;;;;;;;;5034137;28;45803;-75
2023/12/19 09:11:08;;;;;;;;;21.25;20.75;;;;;;;;5033464;28;45868;-75
2023/12/19 09:13:38;;;;;;;;;24.50;20.75;;;;;;;;5038430;28;46571;-75
2023/12/19 09:16:06;;;;;;;;;27.25;21.25;;;;;;;;5035893;28;45659;-75
2023/12/19 09:18:31;;;;;;;;;20.50;18.00;;;;;;;;5041679;28;45384;-75
2023/12/19 09:20:56;;;;;;;;;31.75;22.00;;;;;;;;5038662;28;45310;-75
2023/12/19 09:23:21;;;;;;;;;20.75;19.50;;;;;;;;5041674;28;46198;-75
2023/12/19 09:25:46;;;;;;;;;19.50;19.50;;;;;;;;5039452;28;45344;-75
2023/12/19 09:28:12;;;;;;;;;23.50;19.25;;;;;;;;5023554;28;45453;-75
2023/12/19 09:30:37;;;;;;;;;20.75;18.75;;;;;;;;5037513;28;45366;-76
2023/12/19 09:33:02;;;;;;;;;21.25;18.50;;;;;;;;5041361;28;45320;-75
2023/12/19 09:35:27;;;;;;;;;21.00;18.50;;;;;;;;5034963;28;45471;-73
2023/12/19 09:37:53;;;;;;;;;20.50;17.25;;;;;;;;5038908;28;45150;-73
2023/12/19 09:40:19;;;;;;;;;20.75;16.75;;;;;;;;5020378;28;46427;-73
2023/12/19 09:42:45;;;;;;;;;16.50;15.50;;;;;;;;5039751;28;45193;-75
2023/12/19 09:45:10;;;;;;;;;17.75;17.00;;;;;;;;5030334;28;45256;-75
2023/12/19 09:47:40;;;;;;;;;15.50;15.00;;;;;;;;5040996;28;45294;-75
2023/12/19 09:50:12;;;;;;;;;24.25;16.50;;;;;;;;5037212;28;45546;-75
2023/12/19 09:52:37;;;;;;;;;21.25;15.25;;;;;;;;5040917;28;45349;-76
2023/12/19 09:55:04;;;;;;;;;16.50;16.00;;;;;;;;5038920;28;45323;-75
2023/12/19 09:57:33;;;;;;;;;18.50;14.75;;;;;;;;5040031;28;45264;-75
2023/12/19 10:00:00;;;;;;;;;16.50;16.50;;;;;;;;5037656;28;45368;-75
2023/12/19 10:02:25;;;;;;;;;24.00;22.00;;;;;;;;5024733;28;45479;-75
2023/12/19 10:04:50;;;;;;;;;21.50;18.50;;;;;;;;5018776;28;45217;-75
2023/12/19 10:07:16;;;;;;;;;18.50;17.00;;;;;;;;5018087;28;45347;-74
2023/12/19 10:09:51;;;;;;;;;19.00;16.50;;;;;;;;5030037;28;45343;-75
2023/12/19 10:12:16;;;;;;;;;27.00;23.25;;;;;;;;5018754;28;47237;-75
2023/12/19 10:14:42;;;;;;;;;18.50;17.25;;;;;;;;5037177;28;45395;-75
2023/12/19 10:17:11;;;;;;;;;23.00;17.50;;;;;;;;5030606;28;45343;-75
2023/12/19 10:19:38;;;;;;;;;15.00;15.00;;;;;;;;5037971;28;45587;-75
2023/12/19 10:22:07;;;;;;;;;18.00;16.75;;;;;;;;5037504;28;46270;-79
2023/12/19 10:24:33;;;;;;;;;17.00;16.00;;;;;;;;5037737;28;45501;-83
2023/12/19 10:27:01;;;;;;;;;18.75;17.00;;;;;;;;5039410;28;45474;-77
2023/12/19 10:29:28;;;;;;;;;22.00;17.00;;;;;;;;5037549;28;45363;-79
2023/12/19 10:31:53;;;;;;;;;17.00;17.00;;;;;;;;5030687;28;46025;-75
2023/12/19 10:34:19;;;;;;;;;16.00;13.25;;;;;;;;5020448;28;45900;-76
2023/12/19 10:36:44;;;;;;;;;18.75;13.75;;;;;;;;5032034;28;45528;-75
2023/12/19 10:39:11;;;;;;;;;14.25;13.75;;;;;;;;5039122;28;45340;-76
2023/12/19 10:41:39;;;;;;;;;22.00;17.00;;;;;;;;5032905;28;46463;-76
2023/12/19 10:44:04;;;;;;;;;15.75;12.50;;;;;;;;5015866;28;45549;-76
2023/12/19 10:46:31;;;;;;;;;14.50;14.50;;;;;;;;5032152;28;45286;-76
2023/12/19 10:49:00;;;;;;;;;16.50;13.00;;;;;;;;5038824;28;45296;-75
2023/12/19 10:51:35;;;;;;;;;16.50;15.50;;;;;;;;5036140;28;45308;-75
2023/12/19 10:54:05;;;;;;;;;19.50;18.00;;;;;;;;5020106;28;45194;-77
2023/12/19 10:56:34;;;;;;;;;19.25;17.00;;;;;;;;5017255;28;45173;-77
2023/12/19 10:59:01;;;;;;;;;18.50;15.75;;;;;;;;5038380;28;45529;-75
2023/12/19 11:01:29;;;;;;;;;20.50;16.00;;;;;;;;4993088;28;1094212;-77
2023/12/19 11:03:57;;;;;;;;;18.50;13.50;;;;;;;;5039939;28;45372;-78
2023/12/19 11:06:27;;;;;;;;;15.50;13.50;;;;;;;;5018985;28;45269;-78
2023/12/19 11:08:55;;;;;;;;;18.00;16.75;;;;;;;;5039769;28;45449;-78
2023/12/19 11:11:27;;;;;;;;;17.75;17.00;;;;;;;;5036405;28;45313;-78
2023/12/19 11:13:53;;;;;;;;;19.00;17.25;;;;;;;;5022749;28;45775;-77
2023/12/19 11:16:18;;;;;;;;;16.00;14.25;;;;;;;;5037454;28;45333;-79
2023/12/19 11:18:50;;;;;;;;;22.25;17.50;;;;;;;;5039141;28;45621;-78
2023/12/19 11:21:21;;;;;;;;;21.75;18.25;;;;;;;;5034339;28;45765;-78
2023/12/19 11:23:49;;;;;;;;;21.25;16.25;;;;;;;;5033431;28;46234;-78
2023/12/19 11:26:21;;;;;;;;;15.00;13.50;;;;;;;;5036497;28;45534;-78
2023/12/19 11:28:46;;;;;;;;;19.25;18.00;;;;;;;;5035161;28;45963;-79
2023/12/19 11:31:38;;;;;;;;;22.00;17.50;;;;;;;;5020154;28;46052;-79
2023/12/19 11:34:22;;;;;;;;;18.25;13.00;;;;;;;;5032054;28;45299;-79
2023/12/19 11:36:59;;;;;;;;;18.00;17.00;;;;;;;;5038637;28;45313;-77
2023/12/19 11:39:29;;;;;;;;;18.50;10.50;;;;;;;;5034853;28;45236;-74
2023/12/19 11:41:55;;;;;;;;;19.25;16.75;;;;;;;;5037441;28;46193;-77
2023/12/19 11:44:31;;;;;;;;;19.75;16.25;;;;;;;;5036236;28;45158;-75
2023/12/19 11:47:13;;;;;;;;;18.50;17.50;;;;;;;;5019614;28;45539;-77
2023/12/19 11:49:38;;;;;;;;;18.75;15.50;;;;;;;;5034924;28;45427;-76
2023/12/19 11:52:04;;;;;;;;;13.50;13.50;;;;;;;;5038073;28;45361;-76
2023/12/19 11:54:29;;;;;;;;;19.25;16.50;;;;;;;;5040616;28;45244;-76
2023/12/19 11:56:58;;;;;;;;;31.25;26.50;;;;;;;;5038156;28;45237;-76
2023/12/19 11:59:24;;;;;;;;;22.50;19.75;;;;;;;;5037357;28;45474;-76
2023/12/19 12:01:53;;;;;;;;;21.00;18.00;;;;;;;;5019925;28;47226;-76
2023/12/19 12:04:19;;;;;;;;;18.50;16.75;;;;;;;;5021106;28;45523;-76
2023/12/19 12:06:44;;;;;;;;;13.50;10.50;;;;;;;;5038418;28;44730;-75
2023/12/19 12:09:10;;;;;;;;;17.75;16.75;;;;;;;;5024214;28;45254;-76
2023/12/19 12:11:51;;;;;;;;;30.00;28.75;;;;;;;;5020250;28;47248;-76
2023/12/19 12:14:16;;;;;;;;;14.00;13.75;;;;;;;;5032682;28;45282;-75
2023/12/19 12:16:42;;;;;;;;;15.50;15.25;;;;;;;;5020513;28;45273;-77
2023/12/19 12:19:11;;;;;;;;;17.25;13.50;;;;;;;;5017678;28;46805;-77
2023/12/19 12:21:42;;;;;;;;;20.25;19.25;;;;;;;;5016368;28;47101;-77
2023/12/19 12:24:07;;;;;;;;;12.25;12.25;;;;;;;;5035482;28;45414;-77
2023/12/19 12:26:33;;;;;;;;;22.00;19.00;;;;;;;;5020975;28;45288;-76
2023/12/19 12:28:58;;;;;;;;;19.50;14.50;;;;;;;;5036180;28;45972;-77
2023/12/19 12:31:23;;;;;;;;;14.75;13.50;;;;;;;;5040457;28;46131;-76
2023/12/19 12:33:51;;;;;;;;;16.50;15.50;;;;;;;;5040153;28;45406;-76
2023/12/19 12:36:16;;;;;;;;;14.25;12.50;;;;;;;;5026202;28;45533;-72
2023/12/19 12:38:41;;;;;;;;;17.00;14.00;;;;;;;;5019664;28;46198;-74
2023/12/19 12:41:07;;;;;;;;;19.75;18.00;;;;;;;;5040772;28;45261;-74
2023/12/19 12:43:34;;;;;;;;;17.50;13.25;;;;;;;;5040299;28;45346;-74
2023/12/19 12:46:02;;;;;;;;;20.50;16.00;;;;;;;;5023819;28;45372;-75
2023/12/19 12:48:27;;;;;;;;;19.50;19.50;;;;;;;;5040773;28;45380;-76
2023/12/19 12:50:53;;;;;;;;;17.50;16.00;;;;;;;;5041212;28;45210;-75
2023/12/19 12:53:18;;;;;;;;;20.50;14.50;;;;;;;;5035699;28;45234;-75
2023/12/19 12:55:43;;;;;;;;;22.00;22.00;;;;;;;;5040614;28;44805;-76
2023/12/19 12:58:09;;;;;;;;;18.25;15.75;;;;;;;;5038448;28;45395;-75
2023/12/19 13:00:34;;;;;;;;;15.75;15.75;;;;;;;;5041232;28;46101;-76
2023/12/19 13:02:59;;;;;;;;;14.75;14.00;;;;;;;;5040472;28;45370;-75
2023/12/19 13:05:24;;;;;;;;;18.50;14.75;;;;;;;;5041842;28;45324;-75
2023/12/19 13:07:50;;;;;;;;;13.50;13.00;;;;;;;;5038113;28;45297;-75
2023/12/19 13:10:16;;;;;;;;;15.25;12.75;;;;;;;;5041251;28;45298;-76
2023/12/19 13:12:43;;;;;;;;;12.00;11.00;;;;;;;;5038131;28;45241;-77
2023/12/19 13:15:08;;;;;;;;;21.50;15.50;;;;;;;;5039981;28;45365;-75
2023/12/19 13:17:33;;;;;;;;;20.00;20.00;;;;;;;;5037925;28;45417;-76
2023/12/19 13:19:58;;;;;;;;;16.50;13.50;;;;;;;;5039633;28;45340;-75
2023/12/19 13:22:25;;;;;;;;;14.00;12.75;;;;;;;;5039271;28;45375;-75
2023/12/19 13:24:50;;;;;;;;;24.50;19.25;;;;;;;;5041296;28;45311;-75
2023/12/19 13:27:16;;;;;;;;;23.50;17.50;;;;;;;;5037128;28;45689;-75
2023/12/19 13:29:41;;;;;;;;;16.25;12.00;;;;;;;;5039518;28;45524;-75
2023/12/19 13:32:07;;;;;;;;;18.50;14.75;;;;;;;;5038486;28;45352;-75
2023/12/19 13:34:33;;;;;;;;;16.25;15.25;;;;;;;;5036807;28;45281;-75
2023/12/19 13:36:58;;;;;;;;;21.50;19.25;;;;;;;;5038935;28;45221;-75
2023/12/19 13:39:23;;;;;;;;;13.00;13.00;;;;;;;;5018564;28;47370;-75
2023/12/19 13:41:51;;;;;;;;;20.75;15.25;;;;;;;;5040442;28;45433;-75
2023/12/19 13:44:16;;;;;;;;;14.50;14.00;;;;;;;;5036085;28;45281;-74
2023/12/19 13:46:42;;;;;;;;;22.25;15.75;;;;;;;;5039835;28;45147;-75
2023/12/19 13:49:08;;;;;;;;;16.00;15.00;;;;;;;;5038332;28;45431;-76
2023/12/19 13:51:33;;;;;;;;;13.75;12.75;;;;;;;;5040702;28;45325;-75
2023/12/19 13:53:59;;;;;;;;;12.50;12.00;;;;;;;;5018240;28;45314;-75
2023/12/19 13:56:24;;;;;;;;;16.25;13.25;;;;;;;;5040725;28;45742;-75
2023/12/19 13:58:49;;;;;;;;;13.25;12.75;;;;;;;;5037823;28;45431;-75
2023/12/19 14:01:14;;;;;;;;;14.25;12.75;;;;;;;;5040377;28;45304;-75
2023/12/19 14:03:40;;;;;;;;;19.75;18.25;;;;;;;;5035015;28;45454;-75
2023/12/19 14:06:05;;;;;;;;;15.50;11.00;;;;;;;;5040596;28;45306;-75
2023/12/19 14:08:31;;;;;;;;;13.25;13.00;;;;;;;;5030563;28;45456;-75